Latest Flight | Flight Log | Data Trends | Login | Join FlightData.com!
Flight Info - N978SR (Cirrus SR22 #2809)
Date
Origin
Dest
Depart
Arrive
Hobbs
Flight Time
Ground Time
Flight Distance
Taxi Distance
Fuel
Fuel/hr
Fuel/nm
Altitude
Gnd Speed
Mon, Jul 5, 2021 LSGS LSZS 07:27 08:21 0.88 hrs 0.68 hrs (0:41) 0.2 hrs (0:12) 112.5 nm 1.5 nm 10.6 gal 12.02 gal/hr 0.09 gal/nm 10511 msl 163.55 kts
Flight Track | Google Earth Export: 3D View, Cockpit View
NEXRAD Archive
Zoom In: Double click. Zoom Out: Double right-click.
Scroll Map: Left-click and drag. Show on graph: Click on track.
Graph |
Zoom In: Click and Drag to the right and down. Zoom Out: Click and Drag to the left.
Scroll Chart (while zoomed in): Hold right mouse-button.
More Flights - N978SR
Fri, Jul 9, 2021 EHGG LSGL 11:10 14:44 3.58 hrs 3.1 hrs 496.19 nm 39.60 gal 11.07 gal/hr 0.08 gal/nm 12434 msl 160 kts
Cruise 11:50:32 11:51:45   1m 13s 0 nm 0.31 gal 15 gal/h 0 gal/nm 0 feet 150 kts    
Cruise 12:00:02 14:22:31   2h 22m 0 nm 28.5 gal 12 gal/h 0 gal/nm 0 feet 165 kts    
Wed, Jul 7, 2021 LFFN EHGG 13:51 16:01 2.15 hrs 2.03 hrs 361.36 nm 42.70 gal 19.88 gal/hr 0.12 gal/nm 13006 msl 177 kts
Cruise 13:56:12 15:32:42   1h 36m 0 nm 19.3 gal 12 gal/h 0 gal/nm 0 feet 178 kts    
Cruise 15:42:12 15:47:12   5m 00s 0 nm 1 gal 12 gal/h 0 gal/nm 0 feet 192 kts    
Wed, Jul 7, 2021 LSGS LFFR 12:32 13:49 1.28 hrs 1.16 hrs 187.15 nm 18.00 gal 14.04 gal/hr 0.10 gal/nm 13002 msl 161 kts
Cruise 12:48:06 12:55:00   6m 54s 0 nm 2.08 gal 18 gal/h 0 gal/nm 0 feet 156 kts    
Cruise 13:00:06 13:03:24   3m 18s 0 nm 0.88 gal 16 gal/h 0 gal/nm 0 feet 174 kts    
Cruise 13:10:54 13:12:12   1m 18s 0 nm 0.4 gal 18 gal/h 0 gal/nm 0 feet 159 kts    
Cruise 13:30:36 13:32:54   2m 18s 0 nm 0.5 gal 13 gal/h 0 gal/nm 0 feet 166 kts    
Cruise 13:44:42 13:49:30   4m 48s 0 nm 0.88 gal 11 gal/h 0 gal/nm 0 feet 149 kts    
Wed, Jul 7, 2021 LSGS EHGG 12:26 16:00 3.58 hrs 3.27 hrs 555.45 nm 42.70 gal 11.94 gal/hr 0.08 gal/nm 13400 msl 170 kts
Cruise 12:49:14 12:54:20   5m 06s 0 nm 1.54 gal 18 gal/h 0 gal/nm 0 feet 154 kts    
Cruise 12:59:21 13:02:40   3m 19s 0 nm 0.89 gal 16 gal/h 0 gal/nm 0 feet 173 kts    
Cruise 13:10:24 13:11:32   1m 08s 0 nm 0.31 gal 16 gal/h 0 gal/nm 0 feet 155 kts    
Cruise 13:29:59 13:32:14   2m 15s 0 nm 0.42 gal 11 gal/h 0 gal/nm 0 feet 166 kts    
Cruise 13:44:02 15:31:56   1h 47m 0 nm 21.58 gal 12 gal/h 0 gal/nm 0 feet 175 kts    
Cruise 15:37:01 15:46:25   9m 24s 0 nm 1.88 gal 12 gal/h 0 gal/nm 0 feet 189 kts    
Tue, Jul 6, 2021 LSZS LSGS 11:05 12:09 1.07 hrs 0.83 hrs 116.16 nm 11.70 gal 10.99 gal/hr 0.10 gal/nm 13037 msl 139 kts
Cruise 11:24:12 11:25:18   1m 06s 0 nm 0.3 gal 16 gal/h 0 gal/nm 0 feet 127 kts    
Cruise 11:31:48 11:35:30   3m 42s 0 nm 0.93 gal 15 gal/h 0 gal/nm 0 feet 131 kts    
Cruise 11:42:18 11:55:18   13m 00s 0 nm 2.6 gal 12 gal/h 0 gal/nm 0 feet 153 kts    
Tue, Jul 6, 2021 LSZS LSGS 11:01 12:09 1.14 hrs 0.84 hrs 116.12 nm 11.70 gal 10.30 gal/hr 0.10 gal